Time;durP1;ratioP1;P1;durP2;ratioP2;P2;SDS_P1;SDS_P2;PMS_P1;PMS_P2;Temp;Humidity;BMP_temperature;BMP_pressure;BME280_temperature;BME280_humidity;BME280_pressure;Samples;Min_cycle;Max_cycle;Signal;HPM_P1;HPM_P2
2022/07/09 00:01:30;;;;;;;7.53;6.88;;;;;;;16.54;100.00;63707.69;5034084;28;20218;-80
2022/07/09 00:03:57;;;;;;;6.93;6.20;;;;;;;16.68;100.00;63724.81;5034223;28;20636;-81
2022/07/09 00:06:24;;;;;;;28.38;8.60;;;;;;;16.75;100.00;63724.41;5034596;28;20218;-80
2022/07/09 00:08:51;;;;;;;17.23;7.65;;;;;;;16.72;100.00;63731.03;5035043;28;20261;-79
2022/07/09 00:11:19;;;;;;;7.00;6.40;;;;;;;16.81;100.00;63735.25;5033188;28;20226;-79
2022/07/09 00:13:46;;;;;;;10.88;6.85;;;;;;;16.73;100.00;63732.59;5034158;28;20202;-80
2022/07/09 00:16:13;;;;;;;9.98;6.88;;;;;;;16.49;100.00;63702.47;5033418;28;20222;-78
2022/07/09 00:18:40;;;;;;;8.68;6.68;;;;;;;16.42;100.00;63695.19;5031730;28;20210;-79
2022/07/09 00:21:06;;;;;;;11.77;8.13;;;;;;;16.56;100.00;63707.19;5033803;28;20431;-79
2022/07/09 00:23:34;;;;;;;25.50;8.80;;;;;;;16.55;100.00;63706.13;5031532;28;20228;-79
2022/07/09 00:26:01;;;;;;;8.70;7.88;;;;;;;16.51;100.00;63704.56;5032516;28;20268;-79
2022/07/09 00:28:29;;;;;;;10.05;9.10;;;;;;;16.46;100.00;63699.38;5031984;28;20236;-78
2022/07/09 00:30:56;;;;;;;12.15;10.25;;;;;;;16.43;100.00;63698.78;5029105;28;20218;-79
2022/07/09 00:33:23;;;;;;;14.32;10.25;;;;;;;16.66;100.00;63722.22;5030409;28;20206;-79
2022/07/09 00:35:50;;;;;;;11.98;9.35;;;;;;;16.67;100.00;63720.69;5030980;28;20241;-78
2022/07/09 00:38:17;;;;;;;10.43;9.57;;;;;;;16.46;100.00;63696.78;5027960;28;20212;-78
2022/07/09 00:40:44;;;;;;;11.52;9.98;;;;;;;16.54;100.00;63709.72;5033229;28;20206;-78
2022/07/09 00:43:18;;;;;;;10.63;9.63;;;;;;;16.56;100.00;63711.81;5035351;28;20266;-79
2022/07/09 00:45:47;;;;;;;10.32;9.00;;;;;;;16.45;100.00;63698.28;5033112;28;20241;-80
2022/07/09 00:48:14;;;;;;;8.95;8.15;;;;;;;16.51;100.00;63707.13;5034008;28;20194;-79
2022/07/09 00:50:42;;;;;;;9.73;8.77;;;;;;;16.49;100.00;63701.97;5035009;28;20217;-78
2022/07/09 00:53:11;;;;;;;7.88;7.28;;;;;;;16.48;100.00;63701.44;5034034;28;20206;-79
2022/07/09 00:55:39;;;;;;;7.80;7.20;;;;;;;16.53;100.00;63706.13;5036435;28;20238;-79
2022/07/09 00:58:06;;;;;;;10.57;8.20;;;;;;;16.46;100.00;63701.94;5034227;28;20201;-79
2022/07/09 01:00:35;;;;;;;8.43;7.57;;;;;;;16.37;100.00;63692.03;5034847;28;20229;-79
2022/07/09 01:03:03;;;;;;;7.32;6.68;;;;;;;16.45;100.00;63700.88;5032748;28;20198;-79
2022/07/09 01:05:35;;;;;;;7.55;6.80;;;;;;;16.36;100.00;63691.00;5017492;28;20273;-79
2022/07/09 01:08:04;;;;;;;7.50;6.72;;;;;;;16.40;100.00;63692.56;5012686;28;20199;-80
2022/07/09 01:10:32;;;;;;;6.80;6.30;;;;;;;16.36;100.00;63691.50;5013467;28;20296;-79
2022/07/09 01:13:00;;;;;;;6.38;5.80;;;;;;;16.37;100.00;63695.13;5013514;28;20202;-80
2022/07/09 01:15:27;;;;;;;7.20;6.60;;;;;;;16.39;100.00;63691.53;5015265;28;20241;-81
2022/07/09 01:17:55;;;;;;;6.10;5.53;;;;;;;16.41;100.00;63691.56;5013802;28;20199;-80
2022/07/09 01:20:25;;;;;;;5.82;5.40;;;;;;;16.45;100.00;63698.28;5014204;28;20515;-80
2022/07/09 01:22:52;;;;;;;5.43;5.03;;;;;;;16.46;100.00;63703.97;5014023;28;20221;-79
2022/07/09 01:25:20;;;;;;;5.53;5.13;;;;;;;16.41;100.00;63691.56;5013647;28;20225;-81
2022/07/09 01:27:47;;;;;;;5.35;4.90;;;;;;;16.39;100.00;63688.97;5012616;28;20207;-80
2022/07/09 01:30:25;;;;;;;6.78;6.28;;;;;;;16.23;100.00;63677.97;5012487;28;20202;-80
2022/07/09 01:32:52;;;;;;;7.25;6.55;;;;;;;16.12;100.00;63669.63;5014226;28;20199;-79
2022/07/09 01:35:19;;;;;;;7.43;6.72;;;;;;;16.13;100.00;63667.59;5012450;28;20199;-80
2022/07/09 01:37:48;;;;;;;6.90;6.40;;;;;;;16.13;100.00;63659.88;5011345;28;20244;-80
2022/07/09 01:40:15;;;;;;;6.78;6.25;;;;;;;16.16;100.00;63668.13;5024227;28;20384;-80
2022/07/09 01:42:42;;;;;;;5.68;5.28;;;;;;;16.14;100.00;63671.19;5034330;28;20198;-80
2022/07/09 01:45:09;;;;;;;6.28;5.75;;;;;;;16.24;100.00;63679.00;5032212;28;20226;-80
2022/07/09 01:47:37;;;;;;;6.55;6.05;;;;;;;16.24;100.00;63681.06;5033454;28;20194;-80
2022/07/09 01:50:04;;;;;;;5.90;5.30;;;;;;;16.28;100.00;63685.75;5013189;28;20237;-79
2022/07/09 01:52:31;;;;;;;5.43;5.07;;;;;;;16.22;100.00;63674.38;5012262;28;20203;-80
2022/07/09 01:54:59;;;;;;;6.30;5.70;;;;;;;16.25;100.00;63682.63;5013037;28;20249;-78
2022/07/09 01:57:26;;;;;;;7.25;6.20;;;;;;;16.14;100.00;63671.19;5011681;28;20230;-79
2022/07/09 01:59:54;;;;;;;6.63;6.13;;;;;;;16.12;100.00;63664.50;5012864;28;20389;-80
2022/07/09 02:02:21;;;;;;;6.47;5.97;;;;;;;16.32;100.00;63689.41;5012456;28;20218;-79
2022/07/09 02:04:48;;;;;;;5.78;5.28;;;;;;;16.39;100.00;63688.97;5020794;28;20208;-79
2022/07/09 02:07:15;;;;;;;7.70;7.00;;;;;;;16.26;100.00;63678.00;5034437;28;20241;-78
2022/07/09 02:09:42;;;;;;;7.07;6.47;;;;;;;16.17;100.00;63671.72;5032401;28;20435;-79
2022/07/09 02:12:11;;;;;;;8.35;7.35;;;;;;;16.16;100.00;63666.09;5031109;28;20218;-79
2022/07/09 02:14:38;;;;;;;6.75;6.10;;;;;;;16.14;100.00;63669.13;5032226;28;20202;-79
2022/07/09 02:17:05;;;;;;;9.00;6.20;;;;;;;15.98;100.00;63647.34;5031191;28;20214;-79
2022/07/09 02:19:32;;;;;;;7.30;6.70;;;;;;;16.31;100.00;63688.38;5029120;28;20241;-78
2022/07/09 02:21:59;;;;;;;6.97;6.38;;;;;;;16.26;100.00;63678.53;5028531;28;20448;-79
2022/07/09 02:24:26;;;;;;;7.45;6.82;;;;;;;16.33;100.00;63685.28;5028673;28;20273;-79
2022/07/09 02:26:54;;;;;;;8.55;7.22;;;;;;;16.25;100.00;63674.41;5029966;28;20245;-78
2022/07/09 02:29:23;;;;;;;7.38;6.78;;;;;;;16.33;100.00;63687.84;5028579;28;20217;-79
2022/07/09 02:31:50;;;;;;;7.85;7.10;;;;;;;16.32;100.00;63681.69;5026990;28;20242;-78
2022/07/09 02:34:17;;;;;;;6.72;6.13;;;;;;;16.24;100.00;63676.44;5027288;28;20237;-78
2022/07/09 02:36:43;;;;;;;6.95;6.45;;;;;;;16.16;100.00;63666.09;5026839;28;20210;-78
2022/07/09 02:39:10;;;;;;;6.53;6.13;;;;;;;16.26;100.00;63680.56;5024905;28;20197;-78
2022/07/09 02:41:37;;;;;;;6.07;5.60;;;;;;;16.12;100.00;63664.50;5025768;28;20218;-77
2022/07/09 02:44:04;;;;;;;5.75;5.35;;;;;;;16.07;100.00;63659.28;5024874;28;20194;-77
2022/07/09 02:46:32;;;;;;;6.22;5.63;;;;;;;15.98;100.00;63654.53;5025495;28;20245;-77
2022/07/09 02:48:59;;;;;;;5.63;5.20;;;;;;;16.03;100.00;63655.13;5025280;28;20199;-77
2022/07/09 02:51:26;;;;;;;5.68;5.28;;;;;;;16.03;100.00;63657.69;5026625;28;20450;-78
2022/07/09 02:53:53;;;;;;;6.13;5.63;;;;;;;16.13;100.00;63668.09;5025199;28;20195;-78
2022/07/09 02:56:20;;;;;;;5.80;5.22;;;;;;;15.98;100.00;63649.41;5025984;28;20257;-79
2022/07/09 02:58:46;;;;;;;6.07;5.60;;;;;;;15.99;100.00;63650.44;5025259;28;20207;-77
2022/07/09 03:01:13;;;;;;;6.18;5.68;;;;;;;16.06;100.00;63653.13;5024958;28;20538;-77
2022/07/09 03:03:42;;;;;;;5.35;4.95;;;;;;;16.05;100.00;63654.13;5025426;28;20197;-78
2022/07/09 03:06:09;;;;;;;5.28;4.97;;;;;;;16.02;100.00;63654.09;5025024;28;20301;-78
2022/07/09 03:08:35;;;;;;;5.68;5.28;;;;;;;15.99;100.00;63653.03;5026643;28;20226;-78
2022/07/09 03:11:03;;;;;;;5.78;5.38;;;;;;;15.99;100.00;63648.41;5025686;28;20217;-78
2022/07/09 03:13:31;;;;;;;5.28;4.97;;;;;;;16.06;100.00;63657.72;5025725;28;20545;-80
2022/07/09 03:15:58;;;;;;;5.10;4.80;;;;;;;16.03;100.00;63657.69;5025888;28;20218;-78
2022/07/09 03:18:25;;;;;;;5.50;5.00;;;;;;;15.98;100.00;63649.41;5027846;28;20514;-79
2022/07/09 03:20:54;;;;;;;5.18;4.88;;;;;;;16.00;100.00;63651.47;5025892;28;20337;-78
2022/07/09 03:23:21;;;;;;;4.93;4.53;;;;;;;15.95;100.00;63646.81;5025926;28;20202;-77
2022/07/09 03:25:48;;;;;;;5.47;5.07;;;;;;;16.06;100.00;63658.25;5025712;28;20556;-77
2022/07/09 03:28:15;;;;;;;5.13;4.82;;;;;;;16.06;100.00;63658.25;5024157;28;20245;-78
2022/07/09 03:30:42;;;;;;;5.25;4.85;;;;;;;16.07;100.00;63661.34;5025970;28;20581;-78
2022/07/09 03:33:09;;;;;;;5.53;5.07;;;;;;;16.01;100.00;63653.03;5026017;28;20199;-78
2022/07/09 03:35:36;;;;;;;4.65;4.40;;;;;;;16.04;100.00;63658.75;5025773;28;20285;-77
2022/07/09 03:38:04;;;;;;;5.43;5.03;;;;;;;16.01;100.00;63652.53;5026724;28;20208;-78
2022/07/09 03:40:31;;;;;;;4.45;4.22;;;;;;;16.09;100.00;63656.22;5025472;28;20218;-78
2022/07/09 03:42:59;;;;;;;4.60;4.30;;;;;;;16.13;100.00;63670.66;5029803;28;20261;-78
2022/07/09 03:45:26;;;;;;;5.47;4.95;;;;;;;16.19;100.00;63669.19;5031316;28;20527;-78
2022/07/09 03:47:52;;;;;;;5.50;5.07;;;;;;;16.33;100.00;63685.28;5029049;28;20198;-79
2022/07/09 03:50:20;;;;;;;5.05;4.75;;;;;;;16.35;100.00;63685.31;5028940;28;20433;-78
2022/07/09 03:52:47;;;;;;;5.75;5.25;;;;;;;16.41;100.00;63693.63;5028627;28;20202;-78
2022/07/09 03:55:15;;;;;;;5.53;5.22;;;;;;;16.48;100.00;63698.34;5028500;28;20194;-78
2022/07/09 03:57:43;;;;;;;5.70;5.30;;;;;;;16.51;100.00;63704.03;5028714;28;20206;-79
2022/07/09 04:00:11;;;;;;;5.45;5.00;;;;;;;16.63;100.00;63717.06;5030909;28;20224;-79
2022/07/09 04:02:38;;;;;;;5.35;5.05;;;;;;;16.69;100.00;63720.19;5030872;28;20218;-80
2022/07/09 04:05:06;;;;;;;5.57;5.13;;;;;;;16.76;100.00;63733.13;5032115;28;20201;-78
2022/07/09 04:07:36;;;;;;;5.00;4.65;;;;;;;16.71;100.00;63727.41;5035656;28;20259;-79
2022/07/09 04:10:04;;;;;;;5.40;5.10;;;;;;;16.60;100.00;63710.84;5033890;28;20186;-79
2022/07/09 04:12:32;;;;;;;5.40;5.00;;;;;;;16.68;100.00;63721.72;5034806;28;20195;-79
2022/07/09 04:14:59;;;;;;;5.28;4.95;;;;;;;16.68;100.00;63719.16;5032288;28;20203;-78
2022/07/09 04:17:26;;;;;;;5.28;4.97;;;;;;;16.78;100.00;63732.66;5030193;28;20285;-79
2022/07/09 04:19:53;;;;;;;5.35;4.80;;;;;;;16.80;100.00;63737.31;5031546;28;20198;-80
2022/07/09 04:22:21;;;;;;;5.40;5.00;;;;;;;16.86;100.00;63737.91;5033739;28;20221;-78
2022/07/09 04:24:53;;;;;;;4.75;4.45;;;;;;;16.87;100.00;63741.50;5036905;28;20199;-79
2022/07/09 04:27:19;;;;;;;4.35;4.05;;;;;;;16.82;100.00;63739.41;5029751;28;20300;-79
2022/07/09 04:29:48;;;;;;;4.97;4.60;;;;;;;16.76;100.00;63733.13;5029392;28;20195;-79
2022/07/09 04:32:15;;;;;;;4.82;4.43;;;;;;;16.72;100.00;63723.31;5029681;28;20380;-80
2022/07/09 04:34:43;;;;;;;4.78;3.90;;;;;;;16.70;100.00;63723.81;5030035;28;20222;-78
2022/07/09 04:37:10;;;;;;;4.53;4.30;;;;;;;16.54;100.00;63702.53;5031643;28;20245;-79
2022/07/09 04:39:37;;;;;;;4.80;4.50;;;;;;;16.55;100.00;63705.63;5030691;28;20212;-78
2022/07/09 04:42:04;;;;;;;4.85;4.65;;;;;;;16.55;100.00;63706.13;5032606;28;20225;-80
2022/07/09 04:44:31;;;;;;;4.45;4.18;;;;;;;16.67;100.00;63720.69;5031935;28;20202;-78
2022/07/09 04:46:59;;;;;;;4.80;4.50;;;;;;;16.59;100.00;63714.94;5029760;28;20264;-80
2022/07/09 04:49:26;;;;;;;5.47;5.07;;;;;;;16.72;100.00;63731.53;5030523;28;20273;-79
2022/07/09 04:51:53;;;;;;;4.93;4.63;;;;;;;16.81;100.00;63732.66;5030911;28;20218;-80
2022/07/09 04:54:20;;;;;;;4.72;4.43;;;;;;;16.91;100.00;63745.66;5030501;28;20214;-80
2022/07/09 04:56:47;;;;;;;5.03;4.72;;;;;;;16.77;100.00;63731.63;5031828;28;20224;-80
2022/07/09 04:59:14;;;;;;;4.97;4.68;;;;;;;16.85;100.00;63741.97;5031742;28;20246;-79
2022/07/09 05:01:41;;;;;;;5.35;4.95;;;;;;;16.87;100.00;63746.63;5031032;28;20220;-79
2022/07/09 05:04:09;;;;;;;5.13;4.78;;;;;;;16.95;100.00;63750.34;5031841;28;20206;-80
2022/07/09 05:06:37;;;;;;;4.72;4.43;;;;;;;16.84;100.00;63738.38;5031917;28;20230;-80
2022/07/09 05:09:04;;;;;;;5.05;4.55;;;;;;;16.88;100.00;63748.19;5033055;28;20209;-79
2022/07/09 05:11:32;;;;;;;5.00;4.70;;;;;;;16.95;100.00;63752.38;5032751;28;20323;-80
2022/07/09 05:13:59;;;;;;;5.07;4.78;;;;;;;16.98;100.00;63758.59;5034058;28;20198;-81
2022/07/09 05:16:26;;;;;;;4.82;4.53;;;;;;;16.94;100.00;63753.94;5033904;28;20415;-80
2022/07/09 05:18:54;;;;;;;4.00;3.80;;;;;;;17.13;100.00;63774.22;5034430;28;20202;-81
2022/07/09 05:21:22;;;;;;;4.68;4.38;;;;;;;17.09;100.00;63764.91;5031919;28;20222;-80
2022/07/09 05:23:49;;;;;;;5.82;4.88;;;;;;;16.86;100.00;63737.91;5033065;28;20202;-82
2022/07/09 05:26:16;;;;;;;5.07;4.13;;;;;;;16.43;100.00;63703.91;5032402;28;20327;-81
2022/07/09 05:28:43;;;;;;;4.78;4.47;;;;;;;16.50;100.00;63703.00;5031984;28;20198;-81
2022/07/09 05:31:10;;;;;;;5.07;4.68;;;;;;;16.68;100.00;63722.25;5032455;28;20585;-81
2022/07/09 05:33:37;;;;;;;4.88;4.57;;;;;;;16.72;100.00;63723.31;5031345;28;20201;-81
2022/07/09 05:36:05;;;;;;;4.60;4.32;;;;;;;16.80;100.00;63731.63;5032058;28;20218;-80
2022/07/09 05:38:33;;;;;;;4.65;4.35;;;;;;;16.79;100.00;63735.75;5032658;28;20225;-81
2022/07/09 05:41:01;;;;;;;4.13;3.92;;;;;;;16.78;100.00;63734.69;5033521;28;20218;-81
2022/07/09 05:43:28;;;;;;;4.63;4.32;;;;;;;16.81;100.00;63737.81;5032695;28;20482;-82
2022/07/09 05:45:55;;;;;;;5.05;4.20;;;;;;;16.67;100.00;63720.69;5033395;28;20218;-81
2022/07/09 05:48:22;;;;;;;3.72;3.53;;;;;;;16.78;100.00;63734.69;5033335;28;20208;-81
2022/07/09 05:50:49;;;;;;;3.90;3.70;;;;;;;16.74;100.00;63725.91;5032630;28;20225;-81
2022/07/09 05:53:16;;;;;;;4.15;3.78;;;;;;;16.72;100.00;63728.47;5031392;28;20210;-81
2022/07/09 05:55:46;;;;;;;4.30;3.90;;;;;;;16.66;100.00;63715.03;5031651;28;20280;-81
2022/07/09 05:58:13;;;;;;;3.40;3.20;;;;;;;16.61;100.00;63714.97;5031272;28;20212;-82
2022/07/09 06:00:40;;;;;;;4.28;3.97;;;;;;;16.58;100.00;63708.75;5032766;28;20218;-81
2022/07/09 06:03:07;;;;;;;3.53;3.33;;;;;;;16.61;100.00;63714.44;5032783;28;20194;-81
2022/07/09 06:05:34;;;;;;;3.63;3.42;;;;;;;16.48;100.00;63704.00;5033482;28;20218;-82
2022/07/09 06:08:02;;;;;;;3.38;3.17;;;;;;;16.64;100.00;63717.56;5033270;28;20264;-82
2022/07/09 06:10:29;;;;;;;3.50;3.30;;;;;;;16.61;100.00;63717.53;5031811;28;20225;-83
2022/07/09 06:12:57;;;;;;;3.67;3.38;;;;;;;16.61;100.00;63714.97;5031644;28;20237;-82
2022/07/09 06:15:24;;;;;;;3.40;3.20;;;;;;;16.53;100.00;63708.69;5030971;28;20222;-81
2022/07/09 06:17:51;;;;;;;3.33;3.13;;;;;;;16.54;100.00;63710.25;5030432;28;20208;-81
2022/07/09 06:20:18;;;;;;;3.63;3.33;;;;;;;16.66;100.00;63719.63;5032016;28;20205;-82
2022/07/09 06:22:45;;;;;;;4.00;3.70;;;;;;;16.56;100.00;63714.38;5032209;28;20224;-81
2022/07/09 06:25:12;;;;;;;3.63;3.42;;;;;;;16.56;100.00;63712.34;5030918;28;20317;-82
2022/07/09 06:27:40;;;;;;;3.38;3.17;;;;;;;16.53;100.00;63709.19;5030398;28;20257;-82
2022/07/09 06:30:10;;;;;;;3.47;3.28;;;;;;;16.26;100.00;63678.53;5033086;28;20200;-82
2022/07/09 06:32:36;;;;;;;3.20;3.03;;;;;;;16.47;100.00;63700.41;5035024;28;20194;-82
2022/07/09 06:35:04;;;;;;;2.90;2.70;;;;;;;16.54;100.00;63707.69;5036033;28;20212;-82
2022/07/09 06:37:31;;;;;;;3.72;2.78;;;;;;;16.52;100.00;63705.06;5035627;28;20217;-83
2022/07/09 06:39:59;;;;;;;2.85;2.60;;;;;;;16.51;100.00;63702.00;5034956;28;20233;-82
2022/07/09 06:42:26;;;;;;;2.95;2.83;;;;;;;16.40;100.00;63690.00;5030325;28;20237;-82
2022/07/09 06:44:53;;;;;;;3.45;3.33;;;;;;;16.42;100.00;63702.38;5031240;28;20202;-82
2022/07/09 06:47:22;;;;;;;3.97;3.78;;;;;;;16.35;100.00;63690.47;5030293;28;20234;-83
2022/07/09 06:49:49;;;;;;;3.10;2.97;;;;;;;16.70;100.00;63726.38;5031111;28;20209;-83
2022/07/09 06:52:16;;;;;;;3.47;3.25;;;;;;;16.37;100.00;63686.88;5030597;28;20241;-84
2022/07/09 06:54:43;;;;;;;4.60;4.20;;;;;;;16.94;100.00;63743.63;5030939;28;20201;-83
2022/07/09 06:57:13;;;;;;;3.80;3.60;;;;;;;17.01;100.00;63756.59;5030854;28;20214;-83
2022/07/09 06:59:43;;;;;;;3.92;3.60;;;;;;;16.75;100.00;63734.69;5032070;28;20229;-83
2022/07/09 07:02:10;;;;;;;3.35;3.15;;;;;;;16.98;100.00;63763.75;5033345;28;20274;-83
2022/07/09 07:04:38;;;;;;;3.25;3.15;;;;;;;17.00;100.00;63755.03;5031695;28;20198;-83
2022/07/09 07:07:08;;;;;;;3.60;3.40;;;;;;;17.09;100.00;63772.63;5032959;28;20248;-84
2022/07/09 07:09:37;;;;;;;3.35;3.05;;;;;;;16.81;100.00;63735.25;5034541;28;20198;-84
2022/07/09 07:12:05;;;;;;;3.33;3.03;;;;;;;16.97;100.00;63755.00;5032646;28;20218;-84
2022/07/09 07:31:22;;;;;;;2.95;2.85;;;;;;;17.73;100.00;63827.94;4997541;28;20282;-83
2022/07/09 07:34:12;;;;;;;3.22;3.03;;;;;;;17.55;100.00;63814.38;5018124;28;20189;-84
2022/07/09 07:39:37;;;;;;;2.78;2.58;;;;;;;17.61;100.00;63820.59;5029262;28;20202;-84
2022/07/09 07:42:06;;;;;;;3.10;2.90;;;;;;;17.89;100.00;63849.75;5030041;28;20218;-84
2022/07/09 07:44:33;;;;;;;2.95;2.85;;;;;;;17.85;100.00;63843.03;5029777;28;20194;-83
2022/07/09 07:47:02;;;;;;;2.92;2.83;;;;;;;18.02;100.00;63863.81;5029495;28;20243;-84
2022/07/09 07:49:29;;;;;;;2.90;2.70;;;;;;;18.06;100.00;63865.41;5030200;28;20233;-83
2022/07/09 07:51:56;;;;;;;3.45;3.13;;;;;;;18.01;100.00;63860.22;5030545;28;20248;-84
2022/07/09 07:54:24;;;;;;;3.10;3.00;;;;;;;17.90;100.00;63848.75;5030233;28;20233;-84
2022/07/09 07:56:54;;;;;;;2.80;2.70;;;;;;;17.91;100.00;63844.63;5031249;28;20218;-85
2022/07/09 07:59:22;;;;;;;3.45;3.30;;;;;;;17.59;100.00;63819.03;5031072;28;20186;-84
2022/07/09 08:01:49;;;;;;;3.42;3.22;;;;;;;17.55;100.00;63814.88;5030992;28;20223;-85
2022/07/09 08:04:19;;;;;;;3.85;3.65;;;;;;;17.69;100.00;63828.94;5030904;28;20224;-84
2022/07/09 08:06:46;;;;;;;4.45;4.05;;;;;;;18.27;100.00;63881.63;5030933;28;20293;-83
2022/07/09 08:09:14;;;;;;;3.33;3.13;;;;;;;18.15;100.00;63876.84;5031991;28;20198;-86
2022/07/09 08:11:42;;;;;;;3.40;3.20;;;;;;;17.96;100.00;63851.91;5030762;28;20210;-84
2022/07/09 08:14:12;;;;;;;5.53;3.70;;;;;;;18.53;100.00;63913.91;5031671;28;20202;-85
2022/07/09 08:16:39;;;;;;;3.63;3.42;;;;;;;18.29;100.00;63886.28;5031643;28;20294;-85
2022/07/09 08:19:07;;;;;;;3.03;2.88;;;;;;;18.45;100.00;63902.97;5031093;28;20257;-86
2022/07/09 08:21:35;;;;;;;3.70;3.42;;;;;;;18.73;100.00;63934.19;5030944;28;20220;-86
2022/07/09 08:24:05;;;;;;;4.93;3.10;;;;;;;18.64;100.00;63930.00;5030877;28;20198;-86
2022/07/09 08:26:32;;;;;;;3.33;3.17;;;;;;;19.02;100.00;63964.97;5032073;28;20217;-86
2022/07/09 08:29:03;;;;;;;3.78;3.58;;;;;;;18.85;100.00;63949.28;5037698;28;20198;-84
2022/07/09 08:31:31;;;;;;;3.88;3.03;;;;;;;19.19;100.00;63984.75;5036700;28;20222;-86
2022/07/09 08:33:58;;;;;;;3.50;3.33;;;;;;;19.15;100.00;63981.09;5035602;28;20229;-85
2022/07/09 08:36:25;;;;;;;3.42;3.22;;;;;;;19.13;100.00;63981.06;5035131;28;20228;-85
2022/07/09 08:38:54;;;;;;;3.50;3.30;;;;;;;19.33;100.00;63999.88;5035617;28;20200;-84
2022/07/09 08:41:24;;;;;;;4.28;3.97;;;;;;;19.08;100.00;63976.38;5033860;28;20260;-85
2022/07/09 08:43:52;;;;;;;3.40;3.30;;;;;;;19.22;100.00;63983.22;5034015;28;20209;-85
2022/07/09 08:46:20;;;;;;;3.63;3.42;;;;;;;19.00;100.00;63962.34;5033834;28;20224;-85
2022/07/09 08:48:48;;;;;;;3.63;3.42;;;;;;;19.12;100.00;63975.38;5032572;28;20285;-84
2022/07/09 08:51:15;;;;;;;3.53;3.22;;;;;;;18.40;100.00;63902.91;5033299;28;20218;-84
2022/07/09 08:53:45;;;;;;;4.10;3.90;;;;;;;18.47;100.00;63912.25;5033396;28;20517;-85
2022/07/09 08:56:17;;;;;;;4.82;3.83;;;;;;;18.76;100.00;63940.44;5037212;28;20280;-85
2022/07/09 08:58:44;;;;;;;3.80;3.60;;;;;;;18.65;100.00;63926.41;5039217;28;20221;-85
2022/07/09 09:01:14;;;;;;;3.60;3.47;;;;;;;19.09;100.00;63974.84;5039107;28;20210;-84
2022/07/09 09:03:42;;;;;;;3.83;3.63;;;;;;;19.14;100.00;63976.94;5038454;28;20197;-85
2022/07/09 09:06:13;;;;;;;3.38;3.28;;;;;;;19.20;100.00;63983.72;5039198;28;20225;-85
2022/07/09 09:08:41;;;;;;;3.38;3.17;;;;;;;19.17;100.00;63983.16;5036172;28;20252;-84
2022/07/09 09:11:13;;;;;;;3.75;3.45;;;;;;;19.47;100.00;64014.47;5033014;28;20238;-84
2022/07/09 09:13:43;;;;;;;3.92;3.72;;;;;;;19.84;100.00;64052.03;5035306;28;20190;-85
2022/07/09 09:16:50;;;;;;;4.63;4.15;;;;;;;19.91;100.00;64056.75;5036891;28;20261;-84
2022/07/09 09:19:17;;;;;;;3.88;3.58;;;;;;;19.90;100.00;64055.69;4978763;29;20227;-85
2022/07/09 09:21:45;;;;;;;4.30;4.10;;;;;;;19.80;100.00;64048.38;4978556;29;20204;-84
2022/07/09 09:24:12;;;;;;;4.55;4.15;;;;;;;19.55;100.00;64017.66;5008545;28;20212;-85
2022/07/09 09:26:39;;;;;;;4.65;4.35;;;;;;;19.14;100.00;63979.53;5037585;28;20421;-83
2022/07/09 09:29:07;;;;;;;5.13;4.70;;;;;;;18.74;100.00;63940.41;5035171;28;20225;-83
2022/07/09 09:31:38;;;;;;;4.68;4.40;;;;;;;18.69;100.00;63933.13;5033690;28;20440;-85
2022/07/09 09:34:13;;;;;;;5.32;4.93;;;;;;;18.42;100.00;63905.53;5032102;28;20200;-84
2022/07/09 09:36:43;;;;;;;6.38;5.03;;;;;;;18.45;100.00;63905.03;5031455;28;20209;-84
2022/07/09 09:39:16;;;;;;;6.03;5.13;;;;;;;18.04;100.00;63860.75;5031265;28;20190;-84
2022/07/09 09:41:44;;;;;;;5.32;4.93;;;;;;;17.83;100.00;63838.34;5031637;28;20249;-84
2022/07/09 09:44:15;;;;;;;5.25;4.95;;;;;;;17.91;100.00;63846.69;5031198;28;20218;-81
2022/07/09 09:46:43;;;;;;;6.15;5.75;;;;;;;17.74;100.00;63834.66;5032469;28;20240;-81
2022/07/09 09:49:14;;;;;;;6.43;6.00;;;;;;;17.20;100.00;63776.34;5030535;28;20226;-82
2022/07/09 09:51:48;;;;;;;6.85;6.28;;;;;;;17.52;100.00;63811.22;5031495;28;20214;-82
2022/07/09 09:54:18;;;;;;;6.57;5.93;;;;;;;17.72;100.00;63829.50;5028794;28;20266;-82
2022/07/09 09:56:46;;;;;;;7.80;7.15;;;;;;;17.99;100.00;63855.03;5028901;28;20285;-80
2022/07/09 09:59:15;;;;;;;6.93;6.38;;;;;;;17.70;100.00;63824.81;5029101;28;20379;-81
2022/07/09 10:01:44;;;;;;;8.55;7.90;;;;;;;17.72;100.00;63830.00;5029937;28;20344;-81
2022/07/09 10:04:12;;;;;;;7.97;7.38;;;;;;;18.36;100.00;63896.16;5026897;28;20199;-82
2022/07/09 10:06:40;;;;;;;7.68;7.07;;;;;;;18.38;100.00;63900.81;5009849;28;20225;-81
2022/07/09 10:09:09;;;;;;;7.00;6.40;;;;;;;18.37;100.00;63895.16;5011014;28;20261;-83
2022/07/09 10:11:44;;;;;;;8.27;6.50;;;;;;;18.21;100.00;63881.03;5009686;28;20281;-83
2022/07/09 10:14:19;;;;;;;8.77;7.43;;;;;;;17.76;100.00;63834.16;5009932;28;20213;-81
2022/07/09 10:16:46;;;;;;;8.32;7.60;;;;;;;17.54;100.00;63811.25;5008724;28;20226;-82
2022/07/09 10:19:25;;;;;;;7.57;6.90;;;;;;;17.49;100.00;63805.53;5008920;28;20206;-81
2022/07/09 10:21:53;;;;;;;7.22;6.63;;;;;;;17.70;100.00;63829.97;5008550;28;20223;-82
2022/07/09 10:24:25;;;;;;;6.72;6.13;;;;;;;17.82;100.00;63837.31;5008461;28;20221;-81
2022/07/09 10:26:52;;;;;;;7.07;6.47;;;;;;;18.12;100.00;63869.09;5008374;28;20261;-81
2022/07/09 10:29:25;;;;;;;6.93;6.10;;;;;;;18.18;100.00;63879.97;5008130;28;20298;-81
2022/07/09 10:31:52;;;;;;;5.93;5.32;;;;;;;18.24;100.00;63878.50;5007924;28;20237;-81
2022/07/09 10:34:37;;;;;;;6.50;5.90;;;;;;;18.24;100.00;63881.59;5008578;28;20190;-80
2022/07/09 10:37:05;;;;;;;7.07;6.47;;;;;;;18.21;100.00;63877.94;5008126;28;20541;-81
2022/07/09 10:39:33;;;;;;;5.95;5.45;;;;;;;17.87;100.00;63848.22;5008422;28;20206;-81
2022/07/09 10:42:01;;;;;;;5.93;5.53;;;;;;;17.86;100.00;63847.16;5008361;28;20218;-82
2022/07/09 10:44:34;;;;;;;6.63;5.97;;;;;;;17.75;100.00;63833.13;5009297;28;20206;-81
2022/07/09 10:47:02;;;;;;;6.82;6.22;;;;;;;17.44;100.00;63800.31;5010603;28;20285;-81
2022/07/09 10:49:29;;;;;;;6.13;5.63;;;;;;;17.51;100.00;63810.72;5010660;28;20231;-82
2022/07/09 10:51:58;;;;;;;6.45;5.97;;;;;;;17.29;100.00;63787.78;5008312;28;20462;-82
2022/07/09 10:54:26;;;;;;;8.65;6.18;;;;;;;17.41;100.00;63799.75;5008250;28;20207;-84
2022/07/09 10:56:53;;;;;;;6.35;5.90;;;;;;;17.47;100.00;63806.03;5008421;28;20515;-83
2022/07/09 10:59:22;;;;;;;6.30;5.90;;;;;;;17.51;100.00;63807.63;5008775;28;20199;-83
2022/07/09 11:01:52;;;;;;;6.32;5.85;;;;;;;17.26;100.00;63777.47;5009023;28;20219;-82
2022/07/09 11:04:27;;;;;;;6.10;5.50;;;;;;;17.38;100.00;63791.50;5014100;28;20193;-85
2022/07/09 11:06:54;;;;;;;6.03;5.53;;;;;;;17.02;100.00;63755.06;5030453;28;20213;-84
2022/07/09 11:09:59;;;;;;;5.15;4.85;;;;;;;17.17;100.00;63770.16;5030953;28;20233;-82
2022/07/09 11:16:15;;;;;;;2.90;2.80;;;;;;;16.67;100.00;63721.19;5032867;28;20226;-82
2022/07/09 11:19:40;;;;;;;2.75;2.40;;;;;;;16.53;100.00;63706.63;5001578;28;20202;-83
2022/07/09 11:26:39;;;;;;;9.25;3.08;;;;;;;16.51;100.00;63709.72;4860489;29;20234;-84
2022/07/09 11:40:23;;;;;;;2.22;2.13;;;;;;;17.32;100.00;63786.28;4823487;29;20200;-84
2022/07/09 12:06:52;;;;;;;1.77;1.77;;;;;;;17.43;100.00;63799.78;4888018;29;20567;-82
2022/07/09 12:09:30;;;;;;;1.67;1.60;;;;;;;17.44;100.00;63800.84;4984480;28;20242;-82
2022/07/09 12:11:59;;;;;;;1.98;1.88;;;;;;;17.62;100.00;63821.66;5010875;28;20246;-86
2022/07/09 12:14:31;;;;;;;2.38;1.83;;;;;;;17.61;100.00;63820.59;5014041;28;20199;-84
2022/07/09 12:16:58;;;;;;;2.00;1.90;;;;;;;17.62;100.00;63817.00;5012398;28;20225;-82
2022/07/09 12:19:27;;;;;;;2.20;2.10;;;;;;;17.81;100.00;63841.94;5012201;28;20199;-83
2022/07/09 12:21:56;;;;;;;2.00;1.90;;;;;;;18.36;100.00;63891.50;5011089;28;20242;-82
2022/07/09 12:24:24;;;;;;;1.73;1.63;;;;;;;18.80;100.00;63944.59;5011552;28;20198;-83
2022/07/09 12:26:51;;;;;;;1.67;1.67;;;;;;;19.24;100.00;63989.97;5012172;28;20254;-81
2022/07/09 12:29:23;;;;;;;3.53;2.30;;;;;;;19.31;100.00;63995.22;5013160;28;20218;-82
2022/07/09 12:31:53;;;;;;;1.83;1.83;;;;;;;19.47;100.00;64008.78;5013695;28;20219;-83
2022/07/09 12:34:20;;;;;;;2.00;1.90;;;;;;;19.23;100.00;63986.84;5012038;28;20199;-83